PWSweather.com
Personal Weather Stations
Station Observations
WXGLH1124
Southern Oaks, Indianapolis, IN 46217

Southern OaksIndianapolis, IN 46217

Lat: 39.65113, Lon: -86.16866

Elevation: 720

Station Type: Vantage Pro2

High Low Average
Temperature 20.0°F-6.7°C 10.8°F-11.8°C 16.1°F-8.8°C
Dew Point 12.6°F-10.8°C 5.1°F-14.9°C 8.6°F-13.0°C
Winds 13.0 mph 20.9 kmh Calm Calm 5.0 mph WSW8.0 kmh WSW
Wind Gusts 17.0 mph27.4 kmh 2.0 mph3.2 kmh 9.0 mph14.5 kmh
Humidity 79% 62% 72%
Pressure 30.40 in1029.5 mb 30.23 in1023.7 mb -
Precipitation 0.00 in0.0 mm - -
Hour Temp Dew Point Humidity Winds Wind Gusts Pressure Precip Precip Rate Daily Precip Total
12:00 AM 11.8°F-11.2°C 4.8°F-15.1°C 73% 2.0 mph NW3.2 kmh NW 4.0 mph6.4 kmh 30.33 in1027.1 mb 0.00 in0.0 mm 0.00 in0.0 mm 0.00 in0.0 mm
12:04 AM 11.8°F-11.2°C 4.8°F-15.1°C 73% 2.0 mph W3.2 kmh W 4.0 mph6.4 kmh 30.33 in1027.1 mb 0.00 in0.0 mm 0.00 in0.0 mm 0.00 in0.0 mm
12:10 AM 11.8°F-11.2°C 4.8°F-15.1°C 73% 2.0 mph NW3.2 kmh NW 5.0 mph8.0 kmh 30.33 in1027.1 mb 0.00 in0.0 mm 0.00 in0.0 mm 0.00 in0.0 mm
12:14 AM 11.8°F-11.2°C 4.8°F-15.1°C 73% 3.0 mph NW4.8 kmh NW 8.0 mph12.9 kmh 30.33 in1027.1 mb 0.00 in0.0 mm 0.00 in0.0 mm 0.00 in0.0 mm
12:20 AM 11.8°F-11.2°C 4.8°F-15.1°C 73% 4.0 mph W6.4 kmh W 7.0 mph11.3 kmh 30.33 in1027.1 mb 0.00 in0.0 mm 0.00 in0.0 mm 0.00 in0.0 mm
12:24 AM 11.8°F-11.2°C 4.8°F-15.1°C 73% Calm Calm 2.0 mph3.2 kmh 30.33 in1027.1 mb 0.00 in0.0 mm 0.00 in0.0 mm 0.00 in0.0 mm
12:30 AM 11.7°F-11.3°C 5.0°F-15.0°C 74% 3.0 mph SW4.8 kmh SW 7.0 mph11.3 kmh 30.33 in1027.1 mb 0.00 in0.0 mm 0.00 in0.0 mm 0.00 in0.0 mm
12:35 AM 11.7°F-11.3°C 5.0°F-15.0°C 74% 1.0 mph WNW1.6 kmh WNW 5.0 mph8.0 kmh 30.32 in1026.8 mb 0.00 in0.0 mm 0.00 in0.0 mm 0.00 in0.0 mm
12:40 AM 11.6°F-11.3°C 4.9°F-15.1°C 74% Calm Calm 3.0 mph4.8 kmh 30.32 in1026.8 mb 0.00 in0.0 mm 0.00 in0.0 mm 0.00 in0.0 mm
12:45 AM 11.5°F-11.4°C 4.8°F-15.1°C 74% 2.0 mph W3.2 kmh W 3.0 mph4.8 kmh 30.32 in1026.8 mb 0.00 in0.0 mm 0.00 in0.0 mm 0.00 in0.0 mm
12:50 AM 11.5°F-11.4°C 5.1°F-14.9°C 75% 2.0 mph W3.2 kmh W 3.0 mph4.8 kmh 30.32 in1026.8 mb 0.00 in0.0 mm 0.00 in0.0 mm 0.00 in0.0 mm
12:55 AM 11.5°F-11.4°C 5.1°F-14.9°C 75% Calm Calm 3.0 mph4.8 kmh 30.32 in1026.8 mb 0.00 in0.0 mm 0.00 in0.0 mm 0.00 in0.0 mm
01:00 AM 11.5°F-11.4°C 5.1°F-14.9°C 75% 4.0 mph SW6.4 kmh SW 4.0 mph6.4 kmh 30.32 in1026.8 mb 0.00 in0.0 mm 0.00 in0.0 mm 0.00 in0.0 mm
01:04 AM 11.5°F-11.4°C 5.1°F-14.9°C 75% 5.0 mph SW8.0 kmh SW 5.0 mph8.0 kmh 30.32 in1026.8 mb 0.00 in0.0 mm 0.00 in0.0 mm 0.00 in0.0 mm
01:10 AM 11.5°F-11.4°C 5.4°F-14.8°C 76% 3.0 mph SW4.8 kmh SW 5.0 mph8.0 kmh 30.32 in1026.8 mb 0.00 in0.0 mm 0.00 in0.0 mm 0.00 in0.0 mm
01:15 AM 11.6°F-11.3°C 5.2°F-14.9°C 75% 4.0 mph SW6.4 kmh SW 6.0 mph9.7 kmh 30.32 in1026.8 mb 0.00 in0.0 mm 0.00 in0.0 mm 0.00 in0.0 mm
01:20 AM 11.6°F-11.3°C 5.2°F-14.9°C 75% 4.0 mph SW6.4 kmh SW 6.0 mph9.7 kmh 30.31 in1026.4 mb 0.00 in0.0 mm 0.00 in0.0 mm 0.00 in0.0 mm
01:25 AM 11.6°F-11.3°C 5.2°F-14.9°C 75% 3.0 mph SW4.8 kmh SW 6.0 mph9.7 kmh 30.31 in1026.4 mb 0.00 in0.0 mm 0.00 in0.0 mm 0.00 in0.0 mm
01:30 AM 11.6°F-11.3°C 5.2°F-14.9°C 75% 3.0 mph SW4.8 kmh SW 5.0 mph8.0 kmh 30.31 in1026.4 mb 0.00 in0.0 mm 0.00 in0.0 mm 0.00 in0.0 mm
01:35 AM 11.6°F-11.3°C 5.2°F-14.9°C 75% 3.0 mph WSW4.8 kmh WSW 4.0 mph6.4 kmh 30.31 in1026.4 mb 0.00 in0.0 mm 0.00 in0.0 mm 0.00 in0.0 mm
01:39 AM 11.6°F-11.3°C 5.2°F-14.9°C 75% 5.0 mph SW8.0 kmh SW 6.0 mph9.7 kmh 30.31 in1026.4 mb 0.00 in0.0 mm 0.00 in0.0 mm 0.00 in0.0 mm
01:45 AM 11.7°F-11.3°C 5.3°F-14.8°C 75% 2.0 mph SW3.2 kmh SW 6.0 mph9.7 kmh 30.30 in1026.1 mb 0.00 in0.0 mm 0.00 in0.0 mm 0.00 in0.0 mm
01:50 AM 11.8°F-11.2°C 5.4°F-14.8°C 75% 2.0 mph SW3.2 kmh SW 5.0 mph8.0 kmh 30.30 in1026.1 mb 0.00 in0.0 mm 0.00 in0.0 mm 0.00 in0.0 mm
01:55 AM 12.0°F-11.1°C 5.6°F-14.7°C 75% 3.0 mph SW4.8 kmh SW 6.0 mph9.7 kmh 30.30 in1026.1 mb 0.00 in0.0 mm 0.00 in0.0 mm 0.00 in0.0 mm
02:00 AM 12.2°F-11.0°C 5.8°F-14.6°C 75% 3.0 mph SW4.8 kmh SW 7.0 mph11.3 kmh 30.30 in1026.1 mb 0.00 in0.0 mm 0.00 in0.0 mm 0.00 in0.0 mm
02:04 AM 12.4°F-10.9°C 6.0°F-14.4°C 75% 5.0 mph SW8.0 kmh SW 9.0 mph14.5 kmh 30.30 in1026.1 mb 0.00 in0.0 mm 0.00 in0.0 mm 0.00 in0.0 mm
02:10 AM 12.5°F-10.8°C 6.1°F-14.4°C 75% 10.0 mph SW16.1 kmh SW 10.0 mph16.1 kmh 30.30 in1026.1 mb 0.00 in0.0 mm 0.00 in0.0 mm 0.00 in0.0 mm
02:15 AM 12.7°F-10.7°C 6.0°F-14.4°C 74% 1.0 mph WSW1.6 kmh WSW 5.0 mph8.0 kmh 30.30 in1026.1 mb 0.00 in0.0 mm 0.00 in0.0 mm 0.00 in0.0 mm
02:20 AM 12.8°F-10.7°C 6.1°F-14.4°C 74% 3.0 mph SW4.8 kmh SW 8.0 mph12.9 kmh 30.30 in1026.1 mb 0.00 in0.0 mm 0.00 in0.0 mm 0.00 in0.0 mm
02:25 AM 13.1°F-10.5°C 6.4°F-14.2°C 74% 7.0 mph SW11.3 kmh SW 9.0 mph14.5 kmh 30.30 in1026.1 mb 0.00 in0.0 mm 0.00 in0.0 mm 0.00 in0.0 mm
02:29 AM 13.3°F-10.4°C 6.9°F-13.9°C 75% 5.0 mph SW8.0 kmh SW 8.0 mph12.9 kmh 30.30 in1026.1 mb 0.00 in0.0 mm 0.00 in0.0 mm 0.00 in0.0 mm
02:35 AM 13.5°F-10.3°C 7.1°F-13.8°C 75% 2.0 mph SW3.2 kmh SW 4.0 mph6.4 kmh 30.30 in1026.1 mb 0.00 in0.0 mm 0.00 in0.0 mm 0.00 in0.0 mm
02:40 AM 13.5°F-10.3°C 6.8°F-14.0°C 74% 3.0 mph WNW4.8 kmh WNW 10.0 mph16.1 kmh 30.30 in1026.1 mb 0.00 in0.0 mm 0.00 in0.0 mm 0.00 in0.0 mm
02:45 AM 13.6°F-10.2°C 6.9°F-13.9°C 74% 3.0 mph SW4.8 kmh SW 8.0 mph12.9 kmh 30.29 in1025.7 mb 0.00 in0.0 mm 0.00 in0.0 mm 0.00 in0.0 mm
02:49 AM 13.6°F-10.2°C 6.6°F-14.1°C 73% 4.0 mph SW6.4 kmh SW 9.0 mph14.5 kmh 30.29 in1025.7 mb 0.00 in0.0 mm 0.00 in0.0 mm 0.00 in0.0 mm
02:55 AM 13.7°F-10.2°C 6.7°F-14.1°C 73% 5.0 mph SW8.0 kmh SW 11.0 mph17.7 kmh 30.29 in1025.7 mb 0.00 in0.0 mm 0.00 in0.0 mm 0.00 in0.0 mm
03:00 AM 13.7°F-10.2°C 6.7°F-14.1°C 73% 7.0 mph SW11.3 kmh SW 10.0 mph16.1 kmh 30.29 in1025.7 mb 0.00 in0.0 mm 0.00 in0.0 mm 0.00 in0.0 mm
03:05 AM 13.8°F-10.1°C 6.8°F-14.0°C 73% 10.0 mph SW16.1 kmh SW 10.0 mph16.1 kmh 30.29 in1025.7 mb 0.00 in0.0 mm 0.00 in0.0 mm 0.00 in0.0 mm
03:10 AM 13.9°F-10.1°C 6.9°F-13.9°C 73% 6.0 mph SW9.7 kmh SW 8.0 mph12.9 kmh 30.30 in1026.1 mb 0.00 in0.0 mm 0.00 in0.0 mm 0.00 in0.0 mm
03:15 AM 13.9°F-10.1°C 6.6°F-14.1°C 72% 4.0 mph SW6.4 kmh SW 12.0 mph19.3 kmh 30.30 in1026.1 mb 0.00 in0.0 mm 0.00 in0.0 mm 0.00 in0.0 mm
03:20 AM 14.0°F-10.0°C 6.7°F-14.1°C 72% 7.0 mph SW11.3 kmh SW 8.0 mph12.9 kmh 30.29 in1025.7 mb 0.00 in0.0 mm 0.00 in0.0 mm 0.00 in0.0 mm
03:25 AM 14.0°F-10.0°C 6.7°F-14.1°C 72% 5.0 mph SW8.0 kmh SW 8.0 mph12.9 kmh 30.29 in1025.7 mb 0.00 in0.0 mm 0.00 in0.0 mm 0.00 in0.0 mm
03:30 AM 14.1°F-9.9°C 6.8°F-14.0°C 72% 5.0 mph SW8.0 kmh SW 8.0 mph12.9 kmh 30.29 in1025.7 mb 0.00 in0.0 mm 0.00 in0.0 mm 0.00 in0.0 mm
03:34 AM 14.1°F-9.9°C 6.8°F-14.0°C 72% 8.0 mph SW12.9 kmh SW 8.0 mph12.9 kmh 30.29 in1025.7 mb 0.00 in0.0 mm 0.00 in0.0 mm 0.00 in0.0 mm
03:39 AM 14.1°F-9.9°C 6.8°F-14.0°C 72% 3.0 mph SW4.8 kmh SW 7.0 mph11.3 kmh 30.29 in1025.7 mb 0.00 in0.0 mm 0.00 in0.0 mm 0.00 in0.0 mm
03:45 AM 14.1°F-9.9°C 6.8°F-14.0°C 72% 5.0 mph SW8.0 kmh SW 9.0 mph14.5 kmh 30.29 in1025.7 mb 0.00 in0.0 mm 0.00 in0.0 mm 0.00 in0.0 mm
03:50 AM 14.1°F-9.9°C 6.8°F-14.0°C 72% 3.0 mph SW4.8 kmh SW 12.0 mph19.3 kmh 30.29 in1025.7 mb 0.00 in0.0 mm 0.00 in0.0 mm 0.00 in0.0 mm
03:54 AM 14.2°F-9.9°C 7.2°F-13.8°C 73% 5.0 mph SW8.0 kmh SW 8.0 mph12.9 kmh 30.29 in1025.7 mb 0.00 in0.0 mm 0.00 in0.0 mm 0.00 in0.0 mm
04:00 AM 14.2°F-9.9°C 7.2°F-13.8°C 73% 4.0 mph S6.4 kmh S 10.0 mph16.1 kmh 30.28 in1025.4 mb 0.00 in0.0 mm 0.00 in0.0 mm 0.00 in0.0 mm
04:05 AM 14.2°F-9.9°C 7.2°F-13.8°C 73% 6.0 mph SW9.7 kmh SW 7.0 mph11.3 kmh 30.28 in1025.4 mb 0.00 in0.0 mm 0.00 in0.0 mm 0.00 in0.0 mm
04:10 AM 14.1°F-9.9°C 7.1°F-13.8°C 73% 7.0 mph WSW11.3 kmh WSW 7.0 mph11.3 kmh 30.28 in1025.4 mb 0.00 in0.0 mm 0.00 in0.0 mm 0.00 in0.0 mm
04:15 AM 13.9°F-10.1°C 6.9°F-13.9°C 73% 6.0 mph WSW9.7 kmh WSW 8.0 mph12.9 kmh 30.28 in1025.4 mb 0.00 in0.0 mm 0.00 in0.0 mm 0.00 in0.0 mm
04:20 AM 13.8°F-10.1°C 6.8°F-14.0°C 73% 13.0 mph SW20.9 kmh SW 13.0 mph20.9 kmh 30.28 in1025.4 mb 0.00 in0.0 mm 0.00 in0.0 mm 0.00 in0.0 mm
04:24 AM 13.7°F-10.2°C 7.0°F-13.9°C 74% 2.0 mph SW3.2 kmh SW 8.0 mph12.9 kmh 30.27 in1025.1 mb 0.00 in0.0 mm 0.00 in0.0 mm 0.00 in0.0 mm
04:30 AM 13.7°F-10.2°C 7.0°F-13.9°C 74% 4.0 mph SW6.4 kmh SW 10.0 mph16.1 kmh 30.27 in1025.1 mb 0.00 in0.0 mm 0.00 in0.0 mm 0.00 in0.0 mm
04:35 AM 13.6°F-10.2°C 6.9°F-13.9°C 74% 5.0 mph SW8.0 kmh SW 8.0 mph12.9 kmh 30.27 in1025.1 mb 0.00 in0.0 mm 0.00 in0.0 mm 0.00 in0.0 mm
04:40 AM 13.6°F-10.2°C 6.9°F-13.9°C 74% 6.0 mph SW9.7 kmh SW 11.0 mph17.7 kmh 30.27 in1025.1 mb 0.00 in0.0 mm 0.00 in0.0 mm 0.00 in0.0 mm
04:44 AM 13.5°F-10.3°C 7.1°F-13.8°C 75% 6.0 mph SW9.7 kmh SW 10.0 mph16.1 kmh 30.27 in1025.1 mb 0.00 in0.0 mm 0.00 in0.0 mm 0.00 in0.0 mm
04:50 AM 13.4°F-10.3°C 7.0°F-13.9°C 75% 7.0 mph WSW11.3 kmh WSW 10.0 mph16.1 kmh 30.27 in1025.1 mb 0.00 in0.0 mm 0.00 in0.0 mm 0.00 in0.0 mm
04:55 AM 13.3°F-10.4°C 6.9°F-13.9°C 75% 5.0 mph SW8.0 kmh SW 10.0 mph16.1 kmh 30.26 in1024.7 mb 0.00 in0.0 mm 0.00 in0.0 mm 0.00 in0.0 mm
05:00 AM 13.2°F-10.4°C 6.8°F-14.0°C 75% 5.0 mph WSW8.0 kmh WSW 10.0 mph16.1 kmh 30.26 in1024.7 mb 0.00 in0.0 mm 0.00 in0.0 mm 0.00 in0.0 mm
05:05 AM 13.1°F-10.5°C 7.0°F-13.9°C 76% 8.0 mph SW12.9 kmh SW 9.0 mph14.5 kmh 30.26 in1024.7 mb 0.00 in0.0 mm 0.00 in0.0 mm 0.00 in0.0 mm
05:10 AM 13.1°F-10.5°C 7.0°F-13.9°C 76% 7.0 mph SW11.3 kmh SW 8.0 mph12.9 kmh 30.26 in1024.7 mb 0.00 in0.0 mm 0.00 in0.0 mm 0.00 in0.0 mm
05:15 AM 13.3°F-10.4°C 7.5°F-13.6°C 77% 2.0 mph SW3.2 kmh SW 7.0 mph11.3 kmh 30.25 in1024.4 mb 0.00 in0.0 mm 0.00 in0.0 mm 0.00 in0.0 mm
05:20 AM 13.3°F-10.4°C 7.7°F-13.5°C 78% 3.0 mph SW4.8 kmh SW 8.0 mph12.9 kmh 30.25 in1024.4 mb 0.00 in0.0 mm 0.00 in0.0 mm 0.00 in0.0 mm
05:25 AM 13.2°F-10.4°C 7.6°F-13.6°C 78% 6.0 mph SW9.7 kmh SW 8.0 mph12.9 kmh 30.25 in1024.4 mb 0.00 in0.0 mm 0.00 in0.0 mm 0.00 in0.0 mm
05:30 AM 13.2°F-10.4°C 7.6°F-13.6°C 78% 3.0 mph SW4.8 kmh SW 8.0 mph12.9 kmh 30.25 in1024.4 mb 0.00 in0.0 mm 0.00 in0.0 mm 0.00 in0.0 mm
05:35 AM 13.1°F-10.5°C 7.5°F-13.6°C 78% 5.0 mph SW8.0 kmh SW 5.0 mph8.0 kmh 30.25 in1024.4 mb 0.00 in0.0 mm 0.00 in0.0 mm 0.00 in0.0 mm
05:39 AM 13.1°F-10.5°C 7.5°F-13.6°C 78% 5.0 mph SW8.0 kmh SW 5.0 mph8.0 kmh 30.25 in1024.4 mb 0.00 in0.0 mm 0.00 in0.0 mm 0.00 in0.0 mm
05:45 AM 12.9°F-10.6°C 7.4°F-13.7°C 78% 3.0 mph SW4.8 kmh SW 5.0 mph8.0 kmh 30.25 in1024.4 mb 0.00 in0.0 mm 0.00 in0.0 mm 0.00 in0.0 mm
05:50 AM 12.8°F-10.7°C 7.3°F-13.7°C 78% 3.0 mph SW4.8 kmh SW 10.0 mph16.1 kmh 30.25 in1024.4 mb 0.00 in0.0 mm 0.00 in0.0 mm 0.00 in0.0 mm
05:55 AM 12.7°F-10.7°C 7.2°F-13.8°C 78% 8.0 mph SW12.9 kmh SW 8.0 mph12.9 kmh 30.25 in1024.4 mb 0.00 in0.0 mm 0.00 in0.0 mm 0.00 in0.0 mm
06:00 AM 12.6°F-10.8°C 6.8°F-14.0°C 77% 6.0 mph SW9.7 kmh SW 9.0 mph14.5 kmh 30.25 in1024.4 mb 0.00 in0.0 mm 0.00 in0.0 mm 0.00 in0.0 mm
06:05 AM 12.6°F-10.8°C 7.1°F-13.8°C 78% 4.0 mph WSW6.4 kmh WSW 5.0 mph8.0 kmh 30.25 in1024.4 mb 0.00 in0.0 mm 0.00 in0.0 mm 0.00 in0.0 mm
06:10 AM 12.4°F-10.9°C 6.9°F-13.9°C 78% 4.0 mph WSW6.4 kmh WSW 6.0 mph9.7 kmh 30.25 in1024.4 mb 0.00 in0.0 mm 0.00 in0.0 mm 0.00 in0.0 mm
06:15 AM 12.2°F-11.0°C 6.4°F-14.2°C 77% 4.0 mph SW6.4 kmh SW 9.0 mph14.5 kmh 30.25 in1024.4 mb 0.00 in0.0 mm 0.00 in0.0 mm 0.00 in0.0 mm
06:20 AM 12.1°F-11.1°C 6.3°F-14.3°C 77% 2.0 mph WSW3.2 kmh WSW 6.0 mph9.7 kmh 30.25 in1024.4 mb 0.00 in0.0 mm 0.00 in0.0 mm 0.00 in0.0 mm
06:24 AM 12.2°F-11.0°C 6.4°F-14.2°C 77% Calm Calm 6.0 mph9.7 kmh 30.25 in1024.4 mb 0.00 in0.0 mm 0.00 in0.0 mm 0.00 in0.0 mm
06:30 AM 12.1°F-11.1°C 6.6°F-14.1°C 78% 1.0 mph WSW1.6 kmh WSW 6.0 mph9.7 kmh 30.24 in1024.0 mb 0.00 in0.0 mm 0.00 in0.0 mm 0.00 in0.0 mm
06:35 AM 12.0°F-11.1°C 6.5°F-14.2°C 78% 2.0 mph SW3.2 kmh SW 7.0 mph11.3 kmh 30.24 in1024.0 mb 0.00 in0.0 mm 0.00 in0.0 mm 0.00 in0.0 mm
06:40 AM 11.8°F-11.2°C 6.0°F-14.4°C 77% 4.0 mph W6.4 kmh W 7.0 mph11.3 kmh 30.24 in1024.0 mb 0.00 in0.0 mm 0.00 in0.0 mm 0.00 in0.0 mm
06:44 AM 11.8°F-11.2°C 6.0°F-14.4°C 77% 4.0 mph SW6.4 kmh SW 5.0 mph8.0 kmh 30.24 in1024.0 mb 0.00 in0.0 mm 0.00 in0.0 mm 0.00 in0.0 mm
06:50 AM 11.9°F-11.2°C 6.4°F-14.2°C 78% 4.0 mph SW6.4 kmh SW 4.0 mph6.4 kmh 30.25 in1024.4 mb 0.00 in0.0 mm 0.00 in0.0 mm 0.00 in0.0 mm
06:54 AM 12.0°F-11.1°C 6.8°F-14.0°C 79% 3.0 mph SW4.8 kmh SW 5.0 mph8.0 kmh 30.25 in1024.4 mb 0.00 in0.0 mm 0.00 in0.0 mm 0.00 in0.0 mm
06:59 AM 11.7°F-11.3°C 6.2°F-14.3°C 78% 4.0 mph WSW6.4 kmh WSW 5.0 mph8.0 kmh 30.25 in1024.4 mb 0.00 in0.0 mm 0.00 in0.0 mm 0.00 in0.0 mm
07:05 AM 11.6°F-11.3°C 6.1°F-14.4°C 78% 3.0 mph SW4.8 kmh SW 4.0 mph6.4 kmh 30.25 in1024.4 mb 0.00 in0.0 mm 0.00 in0.0 mm 0.00 in0.0 mm
07:10 AM 11.6°F-11.3°C 5.8°F-14.6°C 77% 3.0 mph SW4.8 kmh SW 8.0 mph12.9 kmh 30.24 in1024.0 mb 0.00 in0.0 mm 0.00 in0.0 mm 0.00 in0.0 mm
07:15 AM 11.6°F-11.3°C 5.8°F-14.6°C 77% 5.0 mph SW8.0 kmh SW 5.0 mph8.0 kmh 30.24 in1024.0 mb 0.00 in0.0 mm 0.00 in0.0 mm 0.00 in0.0 mm
07:19 AM 11.4°F-11.4°C 5.6°F-14.7°C 77% 3.0 mph SW4.8 kmh SW 7.0 mph11.3 kmh 30.24 in1024.0 mb 0.00 in0.0 mm 0.00 in0.0 mm 0.00 in0.0 mm
07:25 AM 11.4°F-11.4°C 5.6°F-14.7°C 77% 3.0 mph SW4.8 kmh SW 5.0 mph8.0 kmh 30.24 in1024.0 mb 0.00 in0.0 mm 0.00 in0.0 mm 0.00 in0.0 mm
07:30 AM 11.3°F-11.5°C 5.5°F-14.7°C 77% 3.0 mph SW4.8 kmh SW 6.0 mph9.7 kmh 30.24 in1024.0 mb 0.00 in0.0 mm 0.00 in0.0 mm 0.00 in0.0 mm
07:35 AM 11.2°F-11.6°C 5.4°F-14.8°C 77% 3.0 mph WSW4.8 kmh WSW 7.0 mph11.3 kmh 30.24 in1024.0 mb 0.00 in0.0 mm 0.00 in0.0 mm 0.00 in0.0 mm
07:40 AM 11.2°F-11.6°C 5.4°F-14.8°C 77% 6.0 mph SW9.7 kmh SW 8.0 mph12.9 kmh 30.24 in1024.0 mb 0.00 in0.0 mm 0.00 in0.0 mm 0.00 in0.0 mm
07:44 AM 11.2°F-11.6°C 5.4°F-14.8°C 77% 6.0 mph SW9.7 kmh SW 6.0 mph9.7 kmh 30.24 in1024.0 mb 0.00 in0.0 mm 0.00 in0.0 mm 0.00 in0.0 mm
07:50 AM 11.3°F-11.5°C 5.8°F-14.6°C 78% 4.0 mph SW6.4 kmh SW 7.0 mph11.3 kmh 30.24 in1024.0 mb 0.00 in0.0 mm 0.00 in0.0 mm 0.00 in0.0 mm
07:55 AM 11.2°F-11.6°C 5.7°F-14.6°C 78% 2.0 mph SW3.2 kmh SW 8.0 mph12.9 kmh 30.24 in1024.0 mb 0.00 in0.0 mm 0.00 in0.0 mm 0.00 in0.0 mm
07:59 AM 11.3°F-11.5°C 6.1°F-14.4°C 79% 3.0 mph SW4.8 kmh SW 6.0 mph9.7 kmh 30.24 in1024.0 mb 0.00 in0.0 mm 0.00 in0.0 mm 0.00 in0.0 mm
08:05 AM 11.2°F-11.6°C 6.0°F-14.4°C 79% 3.0 mph SW4.8 kmh SW 12.0 mph19.3 kmh 30.24 in1024.0 mb 0.00 in0.0 mm 0.00 in0.0 mm 0.00 in0.0 mm
08:10 AM 11.1°F-11.6°C 5.6°F-14.7°C 78% 9.0 mph SW14.5 kmh SW 9.0 mph14.5 kmh 30.23 in1023.7 mb 0.00 in0.0 mm 0.00 in0.0 mm 0.00 in0.0 mm
08:14 AM 10.9°F-11.7°C 5.4°F-14.8°C 78% 4.0 mph SW6.4 kmh SW 7.0 mph11.3 kmh 30.24 in1024.0 mb 0.00 in0.0 mm 0.00 in0.0 mm 0.00 in0.0 mm
08:20 AM 10.9°F-11.7°C 5.4°F-14.8°C 78% 4.0 mph SW6.4 kmh SW 7.0 mph11.3 kmh 30.23 in1023.7 mb 0.00 in0.0 mm 0.00 in0.0 mm 0.00 in0.0 mm
08:25 AM 11.0°F-11.7°C 5.5°F-14.7°C 78% 1.0 mph SW1.6 kmh SW 4.0 mph6.4 kmh 30.24 in1024.0 mb 0.00 in0.0 mm 0.00 in0.0 mm 0.00 in0.0 mm
08:30 AM 11.0°F-11.7°C 5.8°F-14.6°C 79% 6.0 mph SW9.7 kmh SW 6.0 mph9.7 kmh 30.24 in1024.0 mb 0.00 in0.0 mm 0.00 in0.0 mm 0.00 in0.0 mm
08:35 AM 10.9°F-11.7°C 5.4°F-14.8°C 78% 4.0 mph SW6.4 kmh SW 9.0 mph14.5 kmh 30.23 in1023.7 mb 0.00 in0.0 mm 0.00 in0.0 mm 0.00 in0.0 mm
08:40 AM 10.8°F-11.8°C 5.3°F-14.8°C 78% 5.0 mph SW8.0 kmh SW 5.0 mph8.0 kmh 30.24 in1024.0 mb 0.00 in0.0 mm 0.00 in0.0 mm 0.00 in0.0 mm
08:45 AM 10.8°F-11.8°C 5.3°F-14.8°C 78% 8.0 mph SW12.9 kmh SW 9.0 mph14.5 kmh 30.24 in1024.0 mb 0.00 in0.0 mm 0.00 in0.0 mm 0.00 in0.0 mm
08:50 AM 10.8°F-11.8°C 5.3°F-14.8°C 78% 7.0 mph SW11.3 kmh SW 7.0 mph11.3 kmh 30.24 in1024.0 mb 0.00 in0.0 mm 0.00 in0.0 mm 0.00 in0.0 mm
08:55 AM 10.9°F-11.7°C 5.4°F-14.8°C 78% 3.0 mph SW4.8 kmh SW 6.0 mph9.7 kmh 30.24 in1024.0 mb 0.00 in0.0 mm 0.00 in0.0 mm 0.00 in0.0 mm
09:00 AM 11.0°F-11.7°C 5.2°F-14.9°C 77% 5.0 mph SW8.0 kmh SW 8.0 mph12.9 kmh 30.24 in1024.0 mb 0.00 in0.0 mm 0.00 in0.0 mm 0.00 in0.0 mm
09:05 AM 11.0°F-11.7°C 5.2°F-14.9°C 77% 4.0 mph WSW6.4 kmh WSW 11.0 mph17.7 kmh 30.24 in1024.0 mb 0.00 in0.0 mm 0.00 in0.0 mm 0.00 in0.0 mm
09:09 AM 11.1°F-11.6°C 5.3°F-14.8°C 77% 5.0 mph WSW8.0 kmh WSW 13.0 mph20.9 kmh 30.24 in1024.0 mb 0.00 in0.0 mm 0.00 in0.0 mm 0.00 in0.0 mm
09:15 AM 11.2°F-11.6°C 5.4°F-14.8°C 77% 8.0 mph SW12.9 kmh SW 11.0 mph17.7 kmh 30.24 in1024.0 mb 0.00 in0.0 mm 0.00 in0.0 mm 0.00 in0.0 mm
09:20 AM 11.4°F-11.4°C 5.6°F-14.7°C 77% 3.0 mph SW4.8 kmh SW 10.0 mph16.1 kmh 30.24 in1024.0 mb 0.00 in0.0 mm 0.00 in0.0 mm 0.00 in0.0 mm
09:25 AM 11.5°F-11.4°C 5.7°F-14.6°C 77% 4.0 mph SW6.4 kmh SW 11.0 mph17.7 kmh 30.24 in1024.0 mb 0.00 in0.0 mm 0.00 in0.0 mm 0.00 in0.0 mm
09:30 AM 11.6°F-11.3°C 5.5°F-14.7°C 76% 5.0 mph SW8.0 kmh SW 10.0 mph16.1 kmh 30.24 in1024.0 mb 0.00 in0.0 mm 0.00 in0.0 mm 0.00 in0.0 mm
09:34 AM 11.8°F-11.2°C 5.7°F-14.6°C 76% 3.0 mph WSW4.8 kmh WSW 6.0 mph9.7 kmh 30.25 in1024.4 mb 0.00 in0.0 mm 0.00 in0.0 mm 0.00 in0.0 mm
09:40 AM 11.9°F-11.2°C 5.8°F-14.6°C 76% 8.0 mph SW12.9 kmh SW 13.0 mph20.9 kmh 30.24 in1024.0 mb 0.00 in0.0 mm 0.00 in0.0 mm 0.00 in0.0 mm
09:44 AM 11.9°F-11.2°C 5.5°F-14.7°C 75% Calm Calm 12.0 mph19.3 kmh 30.25 in1024.4 mb 0.00 in0.0 mm 0.00 in0.0 mm 0.00 in0.0 mm
09:50 AM 12.2°F-11.0°C 5.8°F-14.6°C 75% 7.0 mph SW11.3 kmh SW 9.0 mph14.5 kmh 30.25 in1024.4 mb 0.00 in0.0 mm 0.00 in0.0 mm 0.00 in0.0 mm
09:55 AM 12.4°F-10.9°C 6.0°F-14.4°C 75% 3.0 mph SW4.8 kmh SW 12.0 mph19.3 kmh 30.25 in1024.4 mb 0.00 in0.0 mm 0.00 in0.0 mm 0.00 in0.0 mm
10:00 AM 12.8°F-10.7°C 6.4°F-14.2°C 75% 1.0 mph WSW1.6 kmh WSW 6.0 mph9.7 kmh 30.25 in1024.4 mb 0.00 in0.0 mm 0.00 in0.0 mm 0.00 in0.0 mm
10:05 AM 13.1°F-10.5°C 6.4°F-14.2°C 74% 6.0 mph W9.7 kmh W 10.0 mph16.1 kmh 30.25 in1024.4 mb 0.00 in0.0 mm 0.00 in0.0 mm 0.00 in0.0 mm
10:09 AM 13.3°F-10.4°C 6.3°F-14.3°C 73% 6.0 mph NW9.7 kmh NW 9.0 mph14.5 kmh 30.25 in1024.4 mb 0.00 in0.0 mm 0.00 in0.0 mm 0.00 in0.0 mm
10:14 AM 13.6°F-10.2°C 6.6°F-14.1°C 73% 6.0 mph SW9.7 kmh SW 7.0 mph11.3 kmh 30.25 in1024.4 mb 0.00 in0.0 mm 0.00 in0.0 mm 0.00 in0.0 mm
10:20 AM 13.6°F-10.2°C 6.0°F-14.4°C 71% 6.0 mph WSW9.7 kmh WSW 11.0 mph17.7 kmh 30.25 in1024.4 mb 0.00 in0.0 mm 0.00 in0.0 mm 0.00 in0.0 mm
10:25 AM 13.7°F-10.2°C 6.1°F-14.4°C 71% 3.0 mph WNW4.8 kmh WNW 16.0 mph25.7 kmh 30.25 in1024.4 mb 0.00 in0.0 mm 0.00 in0.0 mm 0.00 in0.0 mm
10:30 AM 13.9°F-10.1°C 6.3°F-14.3°C 71% 3.0 mph W4.8 kmh W 9.0 mph14.5 kmh 30.25 in1024.4 mb 0.00 in0.0 mm 0.00 in0.0 mm 0.00 in0.0 mm
10:34 AM 14.3°F-9.8°C 6.9°F-13.9°C 72% 7.0 mph NW11.3 kmh NW 9.0 mph14.5 kmh 30.25 in1024.4 mb 0.00 in0.0 mm 0.00 in0.0 mm 0.00 in0.0 mm
10:40 AM 14.2°F-9.9°C 6.5°F-14.2°C 71% 3.0 mph WNW4.8 kmh WNW 8.0 mph12.9 kmh 30.25 in1024.4 mb 0.00 in0.0 mm 0.00 in0.0 mm 0.00 in0.0 mm
10:45 AM 14.8°F-9.6°C 7.1°F-13.8°C 71% 6.0 mph WSW9.7 kmh WSW 11.0 mph17.7 kmh 30.26 in1024.7 mb 0.00 in0.0 mm 0.00 in0.0 mm 0.00 in0.0 mm
10:50 AM 14.7°F-9.6°C 6.7°F-14.1°C 70% 7.0 mph W11.3 kmh W 9.0 mph14.5 kmh 30.25 in1024.4 mb 0.00 in0.0 mm 0.00 in0.0 mm 0.00 in0.0 mm
10:55 AM 14.9°F-9.5°C 6.6°F-14.1°C 69% 4.0 mph WSW6.4 kmh WSW 13.0 mph20.9 kmh 30.26 in1024.7 mb 0.00 in0.0 mm 0.00 in0.0 mm 0.00 in0.0 mm
11:00 AM 14.7°F-9.6°C 6.4°F-14.2°C 69% 7.0 mph W11.3 kmh W 13.0 mph20.9 kmh 30.25 in1024.4 mb 0.00 in0.0 mm 0.00 in0.0 mm 0.00 in0.0 mm
11:05 AM 15.0°F-9.4°C 6.7°F-14.1°C 69% 2.0 mph WNW3.2 kmh WNW 7.0 mph11.3 kmh 30.26 in1024.7 mb 0.00 in0.0 mm 0.00 in0.0 mm 0.00 in0.0 mm
11:10 AM 15.4°F-9.2°C 7.1°F-13.8°C 69% 2.0 mph NW3.2 kmh NW 10.0 mph16.1 kmh 30.25 in1024.4 mb 0.00 in0.0 mm 0.00 in0.0 mm 0.00 in0.0 mm
11:15 AM 15.6°F-9.1°C 6.6°F-14.1°C 67% 2.0 mph WSW3.2 kmh WSW 8.0 mph12.9 kmh 30.26 in1024.7 mb 0.00 in0.0 mm 0.00 in0.0 mm 0.00 in0.0 mm
11:20 AM 16.1°F-8.8°C 7.1°F-13.8°C 67% 12.0 mph SW19.3 kmh SW 13.0 mph20.9 kmh 30.25 in1024.4 mb 0.00 in0.0 mm 0.00 in0.0 mm 0.00 in0.0 mm
11:24 AM 16.1°F-8.8°C 7.1°F-13.8°C 67% 7.0 mph NW11.3 kmh NW 13.0 mph20.9 kmh 30.26 in1024.7 mb 0.00 in0.0 mm 0.00 in0.0 mm 0.00 in0.0 mm
11:30 AM 16.2°F-8.8°C 6.9°F-13.9°C 66% 7.0 mph WNW11.3 kmh WNW 10.0 mph16.1 kmh 30.26 in1024.7 mb 0.00 in0.0 mm 0.00 in0.0 mm 0.00 in0.0 mm
11:35 AM 16.2°F-8.8°C 6.9°F-13.9°C 66% 5.0 mph WSW8.0 kmh WSW 14.0 mph22.5 kmh 30.26 in1024.7 mb 0.00 in0.0 mm 0.00 in0.0 mm 0.00 in0.0 mm
11:40 AM 16.5°F-8.6°C 7.1°F-13.8°C 66% 4.0 mph NW6.4 kmh NW 11.0 mph17.7 kmh 30.26 in1024.7 mb 0.00 in0.0 mm 0.00 in0.0 mm 0.00 in0.0 mm
11:44 AM 16.9°F-8.4°C 7.5°F-13.6°C 66% 9.0 mph W14.5 kmh W 15.0 mph24.1 kmh 30.26 in1024.7 mb 0.00 in0.0 mm 0.00 in0.0 mm 0.00 in0.0 mm
11:50 AM 16.9°F-8.4°C 7.2°F-13.8°C 65% 7.0 mph W11.3 kmh W 15.0 mph24.1 kmh 30.26 in1024.7 mb 0.00 in0.0 mm 0.00 in0.0 mm 0.00 in0.0 mm
11:55 AM 17.0°F-8.3°C 7.6°F-13.6°C 66% 4.0 mph SW6.4 kmh SW 11.0 mph17.7 kmh 30.26 in1024.7 mb 0.00 in0.0 mm 0.00 in0.0 mm 0.00 in0.0 mm
12:00 PM 17.0°F-8.3°C 6.9°F-13.9°C 64% 7.0 mph W11.3 kmh W 10.0 mph16.1 kmh 30.25 in1024.4 mb 0.00 in0.0 mm 0.00 in0.0 mm 0.00 in0.0 mm
12:04 PM 17.0°F-8.3°C 6.9°F-13.9°C 64% 10.0 mph WSW16.1 kmh WSW 12.0 mph19.3 kmh 30.26 in1024.7 mb 0.00 in0.0 mm 0.00 in0.0 mm 0.00 in0.0 mm
12:10 PM 17.2°F-8.2°C 7.5°F-13.6°C 65% 4.0 mph WSW6.4 kmh WSW 9.0 mph14.5 kmh 30.26 in1024.7 mb 0.00 in0.0 mm 0.00 in0.0 mm 0.00 in0.0 mm
12:15 PM 17.3°F-8.2°C 7.6°F-13.6°C 65% 3.0 mph WSW4.8 kmh WSW 9.0 mph14.5 kmh 30.25 in1024.4 mb 0.00 in0.0 mm 0.00 in0.0 mm 0.00 in0.0 mm
12:20 PM 17.3°F-8.2°C 7.2°F-13.8°C 64% 10.0 mph SW16.1 kmh SW 10.0 mph16.1 kmh 30.26 in1024.7 mb 0.00 in0.0 mm 0.00 in0.0 mm 0.00 in0.0 mm
12:25 PM 17.3°F-8.2°C 7.9°F-13.4°C 66% 11.0 mph SW17.7 kmh SW 12.0 mph19.3 kmh 30.25 in1024.4 mb 0.00 in0.0 mm 0.00 in0.0 mm 0.00 in0.0 mm
12:30 PM 17.3°F-8.2°C 7.9°F-13.4°C 66% 10.0 mph SW16.1 kmh SW 11.0 mph17.7 kmh 30.26 in1024.7 mb 0.00 in0.0 mm 0.00 in0.0 mm 0.00 in0.0 mm
12:35 PM 17.6°F-8.0°C 8.2°F-13.2°C 66% 9.0 mph SW14.5 kmh SW 11.0 mph17.7 kmh 30.26 in1024.7 mb 0.00 in0.0 mm 0.00 in0.0 mm 0.00 in0.0 mm
12:40 PM 18.0°F-7.8°C 8.6°F-13.0°C 66% 4.0 mph WSW6.4 kmh WSW 15.0 mph24.1 kmh 30.26 in1024.7 mb 0.00 in0.0 mm 0.00 in0.0 mm 0.00 in0.0 mm
12:45 PM 18.6°F-7.4°C 9.2°F-12.7°C 66% 7.0 mph WSW11.3 kmh WSW 14.0 mph22.5 kmh 30.26 in1024.7 mb 0.00 in0.0 mm 0.00 in0.0 mm 0.00 in0.0 mm
12:50 PM 18.7°F-7.4°C 9.2°F-12.7°C 66% 7.0 mph SW11.3 kmh SW 14.0 mph22.5 kmh 30.27 in1025.1 mb 0.00 in0.0 mm 0.00 in0.0 mm 0.00 in0.0 mm
12:55 PM 18.9°F-7.3°C 9.4°F-12.6°C 66% 8.0 mph SW12.9 kmh SW 13.0 mph20.9 kmh 30.26 in1024.7 mb 0.00 in0.0 mm 0.00 in0.0 mm 0.00 in0.0 mm
01:00 PM 18.8°F-7.3°C 9.0°F-12.8°C 65% 6.0 mph WSW9.7 kmh WSW 8.0 mph12.9 kmh 30.26 in1024.7 mb 0.00 in0.0 mm 0.00 in0.0 mm 0.00 in0.0 mm
01:05 PM 19.5°F-6.9°C 9.7°F-12.4°C 65% Calm Calm 10.0 mph16.1 kmh 30.27 in1025.1 mb 0.00 in0.0 mm 0.00 in0.0 mm 0.00 in0.0 mm
01:10 PM 19.7°F-6.8°C 9.2°F-12.7°C 63% 4.0 mph WSW6.4 kmh WSW 11.0 mph17.7 kmh 30.27 in1025.1 mb 0.00 in0.0 mm 0.00 in0.0 mm 0.00 in0.0 mm
01:15 PM 20.0°F-6.7°C 9.8°F-12.3°C 64% 1.0 mph SW1.6 kmh SW 13.0 mph20.9 kmh 30.27 in1025.1 mb 0.00 in0.0 mm 0.00 in0.0 mm 0.00 in0.0 mm
01:20 PM 19.7°F-6.8°C 8.8°F-12.9°C 62% 5.0 mph WSW8.0 kmh WSW 9.0 mph14.5 kmh 30.27 in1025.1 mb 0.00 in0.0 mm 0.00 in0.0 mm 0.00 in0.0 mm
01:25 PM 19.7°F-6.8°C 9.5°F-12.5°C 64% 11.0 mph SW17.7 kmh SW 15.0 mph24.1 kmh 30.27 in1025.1 mb 0.00 in0.0 mm 0.00 in0.0 mm 0.00 in0.0 mm
01:30 PM 19.6°F-6.9°C 9.4°F-12.6°C 64% 8.0 mph WNW12.9 kmh WNW 13.0 mph20.9 kmh 30.27 in1025.1 mb 0.00 in0.0 mm 0.00 in0.0 mm 0.00 in0.0 mm
01:35 PM 19.5°F-6.9°C 9.3°F-12.6°C 64% 2.0 mph NW3.2 kmh NW 11.0 mph17.7 kmh 30.27 in1025.1 mb 0.00 in0.0 mm 0.00 in0.0 mm 0.00 in0.0 mm
01:40 PM 19.6°F-6.9°C 9.8°F-12.3°C 65% 2.0 mph NW3.2 kmh NW 11.0 mph17.7 kmh 30.27 in1025.1 mb 0.00 in0.0 mm 0.00 in0.0 mm 0.00 in0.0 mm
01:45 PM 19.8°F-6.8°C 10.0°F-12.2°C 65% 5.0 mph WSW8.0 kmh WSW 10.0 mph16.1 kmh 30.27 in1025.1 mb 0.00 in0.0 mm 0.00 in0.0 mm 0.00 in0.0 mm
01:50 PM 19.6°F-6.9°C 9.8°F-12.3°C 65% 6.0 mph W9.7 kmh W 15.0 mph24.1 kmh 30.27 in1025.1 mb 0.00 in0.0 mm 0.00 in0.0 mm 0.00 in0.0 mm
01:55 PM 19.4°F-7.0°C 9.2°F-12.7°C 64% 11.0 mph W17.7 kmh W 11.0 mph17.7 kmh 30.27 in1025.1 mb 0.00 in0.0 mm 0.00 in0.0 mm 0.00 in0.0 mm
02:00 PM 19.5°F-6.9°C 9.7°F-12.4°C 65% 5.0 mph SW8.0 kmh SW 12.0 mph19.3 kmh 30.27 in1025.1 mb 0.00 in0.0 mm 0.00 in0.0 mm 0.00 in0.0 mm
02:05 PM 19.8°F-6.8°C 10.0°F-12.2°C 65% 9.0 mph W14.5 kmh W 9.0 mph14.5 kmh 30.28 in1025.4 mb 0.00 in0.0 mm 0.00 in0.0 mm 0.00 in0.0 mm
02:10 PM 19.5°F-6.9°C 9.7°F-12.4°C 65% 8.0 mph N12.9 kmh N 14.0 mph22.5 kmh 30.28 in1025.4 mb 0.00 in0.0 mm 0.00 in0.0 mm 0.00 in0.0 mm
02:15 PM 19.4°F-7.0°C 9.9°F-12.3°C 66% 9.0 mph WNW14.5 kmh WNW 16.0 mph25.7 kmh 30.28 in1025.4 mb 0.00 in0.0 mm 0.00 in0.0 mm 0.00 in0.0 mm
02:19 PM 19.3°F-7.1°C 9.8°F-12.3°C 66% 10.0 mph W16.1 kmh W 11.0 mph17.7 kmh 30.28 in1025.4 mb 0.00 in0.0 mm 0.00 in0.0 mm 0.00 in0.0 mm
02:25 PM 19.4°F-7.0°C 9.9°F-12.3°C 66% 6.0 mph W9.7 kmh W 12.0 mph19.3 kmh 30.28 in1025.4 mb 0.00 in0.0 mm 0.00 in0.0 mm 0.00 in0.0 mm
02:30 PM 19.6°F-6.9°C 10.4°F-12.0°C 67% 5.0 mph SW8.0 kmh SW 7.0 mph11.3 kmh 30.28 in1025.4 mb 0.00 in0.0 mm 0.00 in0.0 mm 0.00 in0.0 mm
02:34 PM 19.9°F-6.7°C 10.7°F-11.8°C 67% 4.0 mph NW6.4 kmh NW 9.0 mph14.5 kmh 30.28 in1025.4 mb 0.00 in0.0 mm 0.00 in0.0 mm 0.00 in0.0 mm
02:40 PM 19.9°F-6.7°C 10.4°F-12.0°C 66% 4.0 mph NW6.4 kmh NW 9.0 mph14.5 kmh 30.28 in1025.4 mb 0.00 in0.0 mm 0.00 in0.0 mm 0.00 in0.0 mm
02:45 PM 19.8°F-6.8°C 10.0°F-12.2°C 65% 3.0 mph W4.8 kmh W 7.0 mph11.3 kmh 30.28 in1025.4 mb 0.00 in0.0 mm 0.00 in0.0 mm 0.00 in0.0 mm
02:50 PM 19.8°F-6.8°C 11.3°F-11.5°C 69% 7.0 mph SW11.3 kmh SW 9.0 mph14.5 kmh 30.28 in1025.4 mb 0.00 in0.0 mm 0.00 in0.0 mm 0.00 in0.0 mm
02:55 PM 19.7°F-6.8°C 11.2°F-11.6°C 69% 4.0 mph NW6.4 kmh NW 11.0 mph17.7 kmh 30.28 in1025.4 mb 0.00 in0.0 mm 0.00 in0.0 mm 0.00 in0.0 mm
03:00 PM 19.8°F-6.8°C 11.0°F-11.7°C 68% 4.0 mph SW6.4 kmh SW 11.0 mph17.7 kmh 30.28 in1025.4 mb 0.00 in0.0 mm 0.00 in0.0 mm 0.00 in0.0 mm
03:04 PM 19.6°F-6.9°C 10.4°F-12.0°C 67% 5.0 mph NW8.0 kmh NW 10.0 mph16.1 kmh 30.28 in1025.4 mb 0.00 in0.0 mm 0.00 in0.0 mm 0.00 in0.0 mm
03:10 PM 19.4°F-7.0°C 10.9°F-11.7°C 69% 4.0 mph WSW6.4 kmh WSW 10.0 mph16.1 kmh 30.28 in1025.4 mb 0.00 in0.0 mm 0.00 in0.0 mm 0.00 in0.0 mm
03:15 PM 19.5°F-6.9°C 11.0°F-11.7°C 69% 8.0 mph NW12.9 kmh NW 15.0 mph24.1 kmh 30.28 in1025.4 mb 0.00 in0.0 mm 0.00 in0.0 mm 0.00 in0.0 mm
03:20 PM 19.8°F-6.8°C 11.9°F-11.2°C 71% 9.0 mph NNW14.5 kmh NNW 9.0 mph14.5 kmh 30.28 in1025.4 mb 0.00 in0.0 mm 0.00 in0.0 mm 0.00 in0.0 mm
03:25 PM 19.7°F-6.8°C 10.5°F-11.9°C 67% 7.0 mph WSW11.3 kmh WSW 10.0 mph16.1 kmh 30.27 in1025.1 mb 0.00 in0.0 mm 0.00 in0.0 mm 0.00 in0.0 mm
03:30 PM 19.6°F-6.9°C 10.8°F-11.8°C 68% 4.0 mph WNW6.4 kmh WNW 10.0 mph16.1 kmh 30.27 in1025.1 mb 0.00 in0.0 mm 0.00 in0.0 mm 0.00 in0.0 mm
03:35 PM 19.5°F-6.9°C 10.3°F-12.1°C 67% 7.0 mph W11.3 kmh W 12.0 mph19.3 kmh 30.27 in1025.1 mb 0.00 in0.0 mm 0.00 in0.0 mm 0.00 in0.0 mm
03:40 PM 19.3°F-7.1°C 11.5°F-11.4°C 71% 6.0 mph SW9.7 kmh SW 9.0 mph14.5 kmh 30.27 in1025.1 mb 0.00 in0.0 mm 0.00 in0.0 mm 0.00 in0.0 mm
03:45 PM 19.3°F-7.1°C 11.1°F-11.6°C 70% 4.0 mph W6.4 kmh W 9.0 mph14.5 kmh 30.27 in1025.1 mb 0.00 in0.0 mm 0.00 in0.0 mm 0.00 in0.0 mm
03:50 PM 19.4°F-7.0°C 11.2°F-11.6°C 70% 4.0 mph WSW6.4 kmh WSW 10.0 mph16.1 kmh 30.27 in1025.1 mb 0.00 in0.0 mm 0.00 in0.0 mm 0.00 in0.0 mm
03:55 PM 19.5°F-6.9°C 12.0°F-11.1°C 72% 3.0 mph NW4.8 kmh NW 8.0 mph12.9 kmh 30.27 in1025.1 mb 0.00 in0.0 mm 0.00 in0.0 mm 0.00 in0.0 mm
04:00 PM 19.7°F-6.8°C 12.2°F-11.0°C 72% 2.0 mph W3.2 kmh W 9.0 mph14.5 kmh 30.28 in1025.4 mb 0.00 in0.0 mm 0.00 in0.0 mm 0.00 in0.0 mm
04:05 PM 19.5°F-6.9°C 11.3°F-11.5°C 70% 7.0 mph W11.3 kmh W 10.0 mph16.1 kmh 30.28 in1025.4 mb 0.00 in0.0 mm 0.00 in0.0 mm 0.00 in0.0 mm
04:10 PM 19.4°F-7.0°C 11.6°F-11.3°C 71% 3.0 mph NW4.8 kmh NW 9.0 mph14.5 kmh 30.28 in1025.4 mb 0.00 in0.0 mm 0.00 in0.0 mm 0.00 in0.0 mm
04:15 PM 19.7°F-6.8°C 11.8°F-11.2°C 71% 6.0 mph W9.7 kmh W 10.0 mph16.1 kmh 30.28 in1025.4 mb 0.00 in0.0 mm 0.00 in0.0 mm 0.00 in0.0 mm
04:20 PM 19.8°F-6.8°C 11.6°F-11.3°C 70% 3.0 mph NW4.8 kmh NW 9.0 mph14.5 kmh 30.28 in1025.4 mb 0.00 in0.0 mm 0.00 in0.0 mm 0.00 in0.0 mm
04:24 PM 19.6°F-6.9°C 11.4°F-11.4°C 70% 6.0 mph NNW9.7 kmh NNW 8.0 mph12.9 kmh 30.28 in1025.4 mb 0.00 in0.0 mm 0.00 in0.0 mm 0.00 in0.0 mm
04:30 PM 19.5°F-6.9°C 10.7°F-11.8°C 68% 3.0 mph WNW4.8 kmh WNW 10.0 mph16.1 kmh 30.29 in1025.7 mb 0.00 in0.0 mm 0.00 in0.0 mm 0.00 in0.0 mm
04:35 PM 19.4°F-7.0°C 9.9°F-12.3°C 66% 5.0 mph NW8.0 kmh NW 13.0 mph20.9 kmh 30.29 in1025.7 mb 0.00 in0.0 mm 0.00 in0.0 mm 0.00 in0.0 mm
04:40 PM 19.4°F-7.0°C 9.9°F-12.3°C 66% 9.0 mph NW14.5 kmh NW 9.0 mph14.5 kmh 30.29 in1025.7 mb 0.00 in0.0 mm 0.00 in0.0 mm 0.00 in0.0 mm
04:45 PM 19.6°F-6.9°C 9.8°F-12.3°C 65% 10.0 mph W16.1 kmh W 14.0 mph22.5 kmh 30.29 in1025.7 mb 0.00 in0.0 mm 0.00 in0.0 mm 0.00 in0.0 mm
04:50 PM 19.6°F-6.9°C 9.1°F-12.7°C 63% 3.0 mph W4.8 kmh W 12.0 mph19.3 kmh 30.29 in1025.7 mb 0.00 in0.0 mm 0.00 in0.0 mm 0.00 in0.0 mm
04:55 PM 19.5°F-6.9°C 9.3°F-12.6°C 64% 2.0 mph WNW3.2 kmh WNW 14.0 mph22.5 kmh 30.29 in1025.7 mb 0.00 in0.0 mm 0.00 in0.0 mm 0.00 in0.0 mm
05:00 PM 19.7°F-6.8°C 9.9°F-12.3°C 65% 8.0 mph WNW12.9 kmh WNW 12.0 mph19.3 kmh 30.30 in1026.1 mb 0.00 in0.0 mm 0.00 in0.0 mm 0.00 in0.0 mm
05:04 PM 19.7°F-6.8°C 10.2°F-12.1°C 66% 6.0 mph SW9.7 kmh SW 9.0 mph14.5 kmh 30.30 in1026.1 mb 0.00 in0.0 mm 0.00 in0.0 mm 0.00 in0.0 mm
05:10 PM 19.7°F-6.8°C 9.5°F-12.5°C 64% 6.0 mph W9.7 kmh W 11.0 mph17.7 kmh 30.30 in1026.1 mb 0.00 in0.0 mm 0.00 in0.0 mm 0.00 in0.0 mm
05:15 PM 19.7°F-6.8°C 9.2°F-12.7°C 63% 5.0 mph NW8.0 kmh NW 8.0 mph12.9 kmh 30.30 in1026.1 mb 0.00 in0.0 mm 0.00 in0.0 mm 0.00 in0.0 mm
05:20 PM 19.6°F-6.9°C 10.1°F-12.2°C 66% 10.0 mph NW16.1 kmh NW 12.0 mph19.3 kmh 30.30 in1026.1 mb 0.00 in0.0 mm 0.00 in0.0 mm 0.00 in0.0 mm
05:25 PM 19.5°F-6.9°C 10.3°F-12.1°C 67% 4.0 mph SW6.4 kmh SW 8.0 mph12.9 kmh 30.30 in1026.1 mb 0.00 in0.0 mm 0.00 in0.0 mm 0.00 in0.0 mm
05:30 PM 19.6°F-6.9°C 10.4°F-12.0°C 67% 3.0 mph WNW4.8 kmh WNW 8.0 mph12.9 kmh 30.30 in1026.1 mb 0.00 in0.0 mm 0.00 in0.0 mm 0.00 in0.0 mm
05:34 PM 19.5°F-6.9°C 10.0°F-12.2°C 66% 4.0 mph WNW6.4 kmh WNW 10.0 mph16.1 kmh 30.31 in1026.4 mb 0.00 in0.0 mm 0.00 in0.0 mm 0.00 in0.0 mm
05:40 PM 19.5°F-6.9°C 10.0°F-12.2°C 66% 3.0 mph NW4.8 kmh NW 7.0 mph11.3 kmh 30.31 in1026.4 mb 0.00 in0.0 mm 0.00 in0.0 mm 0.00 in0.0 mm
05:45 PM 19.5°F-6.9°C 10.0°F-12.2°C 66% 7.0 mph WSW11.3 kmh WSW 9.0 mph14.5 kmh 30.31 in1026.4 mb 0.00 in0.0 mm 0.00 in0.0 mm 0.00 in0.0 mm
05:50 PM 19.7°F-6.8°C 9.9°F-12.3°C 65% 5.0 mph SW8.0 kmh SW 11.0 mph17.7 kmh 30.31 in1026.4 mb 0.00 in0.0 mm 0.00 in0.0 mm 0.00 in0.0 mm
05:55 PM 20.0°F-6.7°C 10.5°F-11.9°C 66% 8.0 mph NW12.9 kmh NW 9.0 mph14.5 kmh 30.31 in1026.4 mb 0.00 in0.0 mm 0.00 in0.0 mm 0.00 in0.0 mm
06:00 PM 20.0°F-6.7°C 10.1°F-12.2°C 65% 5.0 mph WSW8.0 kmh WSW 8.0 mph12.9 kmh 30.31 in1026.4 mb 0.00 in0.0 mm 0.00 in0.0 mm 0.00 in0.0 mm
06:04 PM 19.8°F-6.8°C 10.0°F-12.2°C 65% 4.0 mph W6.4 kmh W 17.0 mph27.4 kmh 30.31 in1026.4 mb 0.00 in0.0 mm 0.00 in0.0 mm 0.00 in0.0 mm
06:10 PM 19.7°F-6.8°C 10.2°F-12.1°C 66% 6.0 mph W9.7 kmh W 14.0 mph22.5 kmh 30.31 in1026.4 mb 0.00 in0.0 mm 0.00 in0.0 mm 0.00 in0.0 mm
06:15 PM 19.7°F-6.8°C 10.5°F-11.9°C 67% 7.0 mph WNW11.3 kmh WNW 12.0 mph19.3 kmh 30.31 in1026.4 mb 0.00 in0.0 mm 0.00 in0.0 mm 0.00 in0.0 mm
06:20 PM 19.7°F-6.8°C 10.5°F-11.9°C 67% 6.0 mph WNW9.7 kmh WNW 11.0 mph17.7 kmh 30.31 in1026.4 mb 0.00 in0.0 mm 0.00 in0.0 mm 0.00 in0.0 mm
06:24 PM 19.6°F-6.9°C 10.4°F-12.0°C 67% 7.0 mph NW11.3 kmh NW 10.0 mph16.1 kmh 30.32 in1026.8 mb 0.00 in0.0 mm 0.00 in0.0 mm 0.00 in0.0 mm
06:30 PM 19.8°F-6.8°C 11.6°F-11.3°C 70% 8.0 mph NW12.9 kmh NW 8.0 mph12.9 kmh 30.32 in1026.8 mb 0.00 in0.0 mm 0.00 in0.0 mm 0.00 in0.0 mm
06:35 PM 19.7°F-6.8°C 11.2°F-11.6°C 69% 5.0 mph WNW8.0 kmh WNW 8.0 mph12.9 kmh 30.32 in1026.8 mb 0.00 in0.0 mm 0.00 in0.0 mm 0.00 in0.0 mm
06:40 PM 19.5°F-6.9°C 11.0°F-11.7°C 69% 5.0 mph NW8.0 kmh NW 10.0 mph16.1 kmh 30.32 in1026.8 mb 0.00 in0.0 mm 0.00 in0.0 mm 0.00 in0.0 mm
06:45 PM 19.5°F-6.9°C 11.0°F-11.7°C 69% 2.0 mph NW3.2 kmh NW 10.0 mph16.1 kmh 30.32 in1026.8 mb 0.00 in0.0 mm 0.00 in0.0 mm 0.00 in0.0 mm
06:50 PM 19.6°F-6.9°C 11.4°F-11.4°C 70% 4.0 mph WSW6.4 kmh WSW 9.0 mph14.5 kmh 30.32 in1026.8 mb 0.00 in0.0 mm 0.00 in0.0 mm 0.00 in0.0 mm
06:55 PM 19.5°F-6.9°C 12.0°F-11.1°C 72% 2.0 mph W3.2 kmh W 8.0 mph12.9 kmh 30.32 in1026.8 mb 0.00 in0.0 mm 0.00 in0.0 mm 0.00 in0.0 mm
07:00 PM 19.5°F-6.9°C 12.3°F-10.9°C 73% 4.0 mph SW6.4 kmh SW 5.0 mph8.0 kmh 30.32 in1026.8 mb 0.00 in0.0 mm 0.00 in0.0 mm 0.00 in0.0 mm
07:05 PM 19.5°F-6.9°C 12.0°F-11.1°C 72% 5.0 mph NW8.0 kmh NW 6.0 mph9.7 kmh 30.32 in1026.8 mb 0.00 in0.0 mm 0.00 in0.0 mm 0.00 in0.0 mm
07:10 PM 19.3°F-7.1°C 11.5°F-11.4°C 71% 5.0 mph WNW8.0 kmh WNW 10.0 mph16.1 kmh 30.32 in1026.8 mb 0.00 in0.0 mm 0.00 in0.0 mm 0.00 in0.0 mm
07:15 PM 19.3°F-7.1°C 11.8°F-11.2°C 72% Calm Calm 10.0 mph16.1 kmh 30.33 in1027.1 mb 0.00 in0.0 mm 0.00 in0.0 mm 0.00 in0.0 mm
07:19 PM 19.3°F-7.1°C 11.8°F-11.2°C 72% Calm Calm 7.0 mph11.3 kmh 30.33 in1027.1 mb 0.00 in0.0 mm 0.00 in0.0 mm 0.00 in0.0 mm
07:25 PM 19.4°F-7.0°C 12.2°F-11.0°C 73% 3.0 mph W4.8 kmh W 8.0 mph12.9 kmh 30.33 in1027.1 mb 0.00 in0.0 mm 0.00 in0.0 mm 0.00 in0.0 mm
07:30 PM 19.5°F-6.9°C 12.6°F-10.8°C 74% 4.0 mph WSW6.4 kmh WSW 8.0 mph12.9 kmh 30.33 in1027.1 mb 0.00 in0.0 mm 0.00 in0.0 mm 0.00 in0.0 mm
07:35 PM 19.4°F-7.0°C 12.2°F-11.0°C 73% 6.0 mph WNW9.7 kmh WNW 14.0 mph22.5 kmh 30.33 in1027.1 mb 0.00 in0.0 mm 0.00 in0.0 mm 0.00 in0.0 mm
07:40 PM 19.2°F-7.1°C 11.7°F-11.3°C 72% 7.0 mph SW11.3 kmh SW 8.0 mph12.9 kmh 30.33 in1027.1 mb 0.00 in0.0 mm 0.00 in0.0 mm 0.00 in0.0 mm
07:45 PM 19.1°F-7.2°C 11.9°F-11.2°C 73% 3.0 mph WNW4.8 kmh WNW 8.0 mph12.9 kmh 30.33 in1027.1 mb 0.00 in0.0 mm 0.00 in0.0 mm 0.00 in0.0 mm
07:50 PM 18.9°F-7.3°C 11.7°F-11.3°C 73% 1.0 mph W1.6 kmh W 7.0 mph11.3 kmh 30.34 in1027.4 mb 0.00 in0.0 mm 0.00 in0.0 mm 0.00 in0.0 mm
07:55 PM 18.8°F-7.3°C 11.6°F-11.3°C 73% 7.0 mph NW11.3 kmh NW 8.0 mph12.9 kmh 30.34 in1027.4 mb 0.00 in0.0 mm 0.00 in0.0 mm 0.00 in0.0 mm
08:00 PM 18.7°F-7.4°C 11.5°F-11.4°C 73% 6.0 mph W9.7 kmh W 8.0 mph12.9 kmh 30.34 in1027.4 mb 0.00 in0.0 mm 0.00 in0.0 mm 0.00 in0.0 mm
08:04 PM 18.7°F-7.4°C 11.2°F-11.6°C 72% 1.0 mph WNW1.6 kmh WNW 5.0 mph8.0 kmh 30.34 in1027.4 mb 0.00 in0.0 mm 0.00 in0.0 mm 0.00 in0.0 mm
08:10 PM 18.7°F-7.4°C 11.2°F-11.6°C 72% 4.0 mph W6.4 kmh W 10.0 mph16.1 kmh 30.34 in1027.4 mb 0.00 in0.0 mm 0.00 in0.0 mm 0.00 in0.0 mm
08:15 PM 18.8°F-7.3°C 11.3°F-11.5°C 72% 4.0 mph WNW6.4 kmh WNW 6.0 mph9.7 kmh 30.35 in1027.8 mb 0.00 in0.0 mm 0.00 in0.0 mm 0.00 in0.0 mm
08:20 PM 18.8°F-7.3°C 11.0°F-11.7°C 71% 5.0 mph WSW8.0 kmh WSW 10.0 mph16.1 kmh 30.35 in1027.8 mb 0.00 in0.0 mm 0.00 in0.0 mm 0.00 in0.0 mm
08:24 PM 18.7°F-7.4°C 10.6°F-11.9°C 70% 3.0 mph WSW4.8 kmh WSW 4.0 mph6.4 kmh 30.35 in1027.8 mb 0.00 in0.0 mm 0.00 in0.0 mm 0.00 in0.0 mm
08:30 PM 18.6°F-7.4°C 10.8°F-11.8°C 71% 4.0 mph WSW6.4 kmh WSW 10.0 mph16.1 kmh 30.35 in1027.8 mb 0.00 in0.0 mm 0.00 in0.0 mm 0.00 in0.0 mm
08:35 PM 18.6°F-7.4°C 10.8°F-11.8°C 71% 4.0 mph WSW6.4 kmh WSW 11.0 mph17.7 kmh 30.35 in1027.8 mb 0.00 in0.0 mm 0.00 in0.0 mm 0.00 in0.0 mm
08:40 PM 18.6°F-7.4°C 10.8°F-11.8°C 71% 4.0 mph NW6.4 kmh NW 6.0 mph9.7 kmh 30.35 in1027.8 mb 0.00 in0.0 mm 0.00 in0.0 mm 0.00 in0.0 mm
08:45 PM 18.5°F-7.5°C 10.7°F-11.8°C 71% 8.0 mph NW12.9 kmh NW 8.0 mph12.9 kmh 30.35 in1027.8 mb 0.00 in0.0 mm 0.00 in0.0 mm 0.00 in0.0 mm
08:50 PM 18.5°F-7.5°C 11.0°F-11.7°C 72% 7.0 mph WSW11.3 kmh WSW 7.0 mph11.3 kmh 30.35 in1027.8 mb 0.00 in0.0 mm 0.00 in0.0 mm 0.00 in0.0 mm
08:55 PM 18.5°F-7.5°C 11.0°F-11.7°C 72% 2.0 mph WNW3.2 kmh WNW 11.0 mph17.7 kmh 30.35 in1027.8 mb 0.00 in0.0 mm 0.00 in0.0 mm 0.00 in0.0 mm
09:00 PM 18.6°F-7.4°C 11.7°F-11.3°C 74% 3.0 mph W4.8 kmh W 4.0 mph6.4 kmh 30.35 in1027.8 mb 0.00 in0.0 mm 0.00 in0.0 mm 0.00 in0.0 mm
09:05 PM 18.5°F-7.5°C 11.6°F-11.3°C 74% 2.0 mph W3.2 kmh W 7.0 mph11.3 kmh 30.35 in1027.8 mb 0.00 in0.0 mm 0.00 in0.0 mm 0.00 in0.0 mm
09:10 PM 18.4°F-7.6°C 11.5°F-11.4°C 74% 4.0 mph W6.4 kmh W 7.0 mph11.3 kmh 30.36 in1028.1 mb 0.00 in0.0 mm 0.00 in0.0 mm 0.00 in0.0 mm
09:15 PM 18.3°F-7.6°C 11.4°F-11.4°C 74% 2.0 mph W3.2 kmh W 9.0 mph14.5 kmh 30.36 in1028.1 mb 0.00 in0.0 mm 0.00 in0.0 mm 0.00 in0.0 mm
09:20 PM 18.2°F-7.7°C 11.3°F-11.5°C 74% 4.0 mph W6.4 kmh W 6.0 mph9.7 kmh 30.36 in1028.1 mb 0.00 in0.0 mm 0.00 in0.0 mm 0.00 in0.0 mm
09:25 PM 18.2°F-7.7°C 11.6°F-11.3°C 75% 3.0 mph SW4.8 kmh SW 5.0 mph8.0 kmh 30.36 in1028.1 mb 0.00 in0.0 mm 0.00 in0.0 mm 0.00 in0.0 mm
09:30 PM 18.1°F-7.7°C 11.5°F-11.4°C 75% 5.0 mph SW8.0 kmh SW 6.0 mph9.7 kmh 30.36 in1028.1 mb 0.00 in0.0 mm 0.00 in0.0 mm 0.00 in0.0 mm
09:35 PM 18.0°F-7.8°C 11.4°F-11.4°C 75% 2.0 mph WSW3.2 kmh WSW 3.0 mph4.8 kmh 30.36 in1028.1 mb 0.00 in0.0 mm 0.00 in0.0 mm 0.00 in0.0 mm
09:40 PM 18.0°F-7.8°C 11.4°F-11.4°C 75% 2.0 mph W3.2 kmh W 7.0 mph11.3 kmh 30.36 in1028.1 mb 0.00 in0.0 mm 0.00 in0.0 mm 0.00 in0.0 mm
09:45 PM 17.9°F-7.8°C 11.0°F-11.7°C 74% 1.0 mph W1.6 kmh W 4.0 mph6.4 kmh 30.36 in1028.1 mb 0.00 in0.0 mm 0.00 in0.0 mm 0.00 in0.0 mm
09:49 PM 18.0°F-7.8°C 11.1°F-11.6°C 74% 3.0 mph WNW4.8 kmh WNW 8.0 mph12.9 kmh 30.36 in1028.1 mb 0.00 in0.0 mm 0.00 in0.0 mm 0.00 in0.0 mm
09:55 PM 17.9°F-7.8°C 11.0°F-11.7°C 74% 3.0 mph WSW4.8 kmh WSW 5.0 mph8.0 kmh 30.36 in1028.1 mb 0.00 in0.0 mm 0.00 in0.0 mm 0.00 in0.0 mm
10:00 PM 17.9°F-7.8°C 11.0°F-11.7°C 74% 1.0 mph WNW1.6 kmh WNW 8.0 mph12.9 kmh 30.36 in1028.1 mb 0.00 in0.0 mm 0.00 in0.0 mm 0.00 in0.0 mm
10:05 PM 17.9°F-7.8°C 11.0°F-11.7°C 74% 4.0 mph WNW6.4 kmh WNW 7.0 mph11.3 kmh 30.36 in1028.1 mb 0.00 in0.0 mm 0.00 in0.0 mm 0.00 in0.0 mm
10:10 PM 17.8°F-7.9°C 10.9°F-11.7°C 74% 1.0 mph WNW1.6 kmh WNW 7.0 mph11.3 kmh 30.37 in1028.4 mb 0.00 in0.0 mm 0.00 in0.0 mm 0.00 in0.0 mm
10:15 PM 17.8°F-7.9°C 10.9°F-11.7°C 74% Calm Calm 8.0 mph12.9 kmh 30.37 in1028.4 mb 0.00 in0.0 mm 0.00 in0.0 mm 0.00 in0.0 mm
10:19 PM 17.8°F-7.9°C 10.9°F-11.7°C 74% 1.0 mph WNW1.6 kmh WNW 4.0 mph6.4 kmh 30.37 in1028.4 mb 0.00 in0.0 mm 0.00 in0.0 mm 0.00 in0.0 mm
10:25 PM 17.7°F-7.9°C 10.8°F-11.8°C 74% 2.0 mph SW3.2 kmh SW 10.0 mph16.1 kmh 30.37 in1028.4 mb 0.00 in0.0 mm 0.00 in0.0 mm 0.00 in0.0 mm
10:30 PM 17.6°F-8.0°C 10.7°F-11.8°C 74% 2.0 mph SW3.2 kmh SW 8.0 mph12.9 kmh 30.37 in1028.4 mb 0.00 in0.0 mm 0.00 in0.0 mm 0.00 in0.0 mm
10:35 PM 17.7°F-7.9°C 10.8°F-11.8°C 74% 3.0 mph WSW4.8 kmh WSW 4.0 mph6.4 kmh 30.37 in1028.4 mb 0.00 in0.0 mm 0.00 in0.0 mm 0.00 in0.0 mm
10:40 PM 17.5°F-8.1°C 10.6°F-11.9°C 74% 2.0 mph SW3.2 kmh SW 3.0 mph4.8 kmh 30.38 in1028.8 mb 0.00 in0.0 mm 0.00 in0.0 mm 0.00 in0.0 mm
10:45 PM 17.6°F-8.0°C 10.7°F-11.8°C 74% 6.0 mph SW9.7 kmh SW 9.0 mph14.5 kmh 30.38 in1028.8 mb 0.00 in0.0 mm 0.00 in0.0 mm 0.00 in0.0 mm
10:50 PM 17.5°F-8.1°C 10.6°F-11.9°C 74% 5.0 mph SW8.0 kmh SW 9.0 mph14.5 kmh 30.38 in1028.8 mb 0.00 in0.0 mm 0.00 in0.0 mm 0.00 in0.0 mm
10:55 PM 17.5°F-8.1°C 10.6°F-11.9°C 74% 3.0 mph SW4.8 kmh SW 8.0 mph12.9 kmh 30.38 in1028.8 mb 0.00 in0.0 mm 0.00 in0.0 mm 0.00 in0.0 mm
10:59 PM 17.4°F-8.1°C 10.6°F-11.9°C 74% 2.0 mph W3.2 kmh W 5.0 mph8.0 kmh 30.38 in1028.8 mb 0.00 in0.0 mm 0.00 in0.0 mm 0.00 in0.0 mm
11:05 PM 17.4°F-8.1°C 10.6°F-11.9°C 74% 4.0 mph WSW6.4 kmh WSW 7.0 mph11.3 kmh 30.38 in1028.8 mb 0.00 in0.0 mm 0.00 in0.0 mm 0.00 in0.0 mm
11:09 PM 17.4°F-8.1°C 10.6°F-11.9°C 74% 4.0 mph NW6.4 kmh NW 4.0 mph6.4 kmh 30.38 in1028.8 mb 0.00 in0.0 mm 0.00 in0.0 mm 0.00 in0.0 mm
11:15 PM 17.3°F-8.2°C 10.5°F-11.9°C 74% 2.0 mph W3.2 kmh W 2.0 mph3.2 kmh 30.38 in1028.8 mb 0.00 in0.0 mm 0.00 in0.0 mm 0.00 in0.0 mm
11:20 PM 17.3°F-8.2°C 10.1°F-12.2°C 73% 4.0 mph WSW6.4 kmh WSW 8.0 mph12.9 kmh 30.38 in1028.8 mb 0.00 in0.0 mm 0.00 in0.0 mm 0.00 in0.0 mm
11:25 PM 17.3°F-8.2°C 10.1°F-12.2°C 73% 2.0 mph WSW3.2 kmh WSW 7.0 mph11.3 kmh 30.39 in1029.1 mb 0.00 in0.0 mm 0.00 in0.0 mm 0.00 in0.0 mm
11:30 PM 17.3°F-8.2°C 10.1°F-12.2°C 73% 2.0 mph W3.2 kmh W 7.0 mph11.3 kmh 30.39 in1029.1 mb 0.00 in0.0 mm 0.00 in0.0 mm 0.00 in0.0 mm
11:35 PM 17.3°F-8.2°C 10.1°F-12.2°C 73% 2.0 mph W3.2 kmh W 7.0 mph11.3 kmh 30.39 in1029.1 mb 0.00 in0.0 mm 0.00 in0.0 mm 0.00 in0.0 mm
11:40 PM 17.3°F-8.2°C 10.1°F-12.2°C 73% 7.0 mph SW11.3 kmh SW 7.0 mph11.3 kmh 30.39 in1029.1 mb 0.00 in0.0 mm 0.00 in0.0 mm 0.00 in0.0 mm
11:45 PM 17.3°F-8.2°C 10.1°F-12.2°C 73% 3.0 mph W4.8 kmh W 7.0 mph11.3 kmh 30.39 in1029.1 mb 0.00 in0.0 mm 0.00 in0.0 mm 0.00 in0.0 mm
11:50 PM 17.2°F-8.2°C 10.1°F-12.2°C 73% Calm Calm 4.0 mph6.4 kmh 30.39 in1029.1 mb 0.00 in0.0 mm 0.00 in0.0 mm 0.00 in0.0 mm
11:55 PM 17.2°F-8.2°C 10.1°F-12.2°C 73% 1.0 mph WSW1.6 kmh WSW 4.0 mph6.4 kmh 30.39 in1029.1 mb 0.00 in0.0 mm 0.00 in0.0 mm 0.00 in0.0 mm